Time;durP1;ratioP1;P1;durP2;ratioP2;P2;SDS_P1;SDS_P2;PMS_P1;PMS_P2;Temp;Humidity;BMP_temperature;BMP_pressure;BME280_temperature;BME280_humidity;BME280_pressure;Samples;Min_cycle;Max_cycle;Signal;HPM_P1;HPM_P2
2023/11/22 00:01:18;;;;;;;15.90;11.10;;;;;;;4.73;68.17;99193.99;234520;215;147679;-59
2023/11/22 00:06:21;;;;;;;15.80;11.70;;;;;;;4.74;68.34;99202.23;234532;213;139491;-59
2023/11/22 00:11:25;;;;;;;15.90;12.70;;;;;;;4.81;68.37;99209.36;234444;215;137324;-59
2023/11/22 00:16:28;;;;;;;17.00;12.30;;;;;;;4.85;68.30;99218.52;234383;215;148084;-59
2023/11/22 00:21:31;;;;;;;16.40;12.40;;;;;;;4.87;67.97;99228.30;234337;213;139515;-59
2023/11/22 00:26:34;;;;;;;16.30;12.40;;;;;;;4.85;68.05;99244.73;234305;215;136907;-59
2023/11/22 00:31:37;;;;;;;15.20;12.10;;;;;;;4.79;68.08;99256.52;234412;212;147626;-59
2023/11/22 00:36:40;;;;;;;16.10;12.20;;;;;;;4.73;68.31;99259.38;234180;215;139497;-59
2023/11/22 00:41:44;;;;;;;14.00;10.80;;;;;;;4.65;68.23;99260.52;234413;215;138916;-59
2023/11/22 00:46:47;;;;;;;16.30;11.10;;;;;;;4.59;68.50;99262.48;234310;214;148315;-59
2023/11/22 00:51:52;;;;;;;16.80;11.80;;;;;;;4.55;68.67;99256.82;234264;214;139884;-59
2023/11/22 00:56:55;;;;;;;14.60;11.40;;;;;;;4.51;68.78;99260.29;234350;209;137818;-59
2023/11/22 01:01:58;;;;;;;15.30;11.10;;;;;;;4.51;68.88;99269.10;234442;215;148790;-60
2023/11/22 01:07:04;;;;;;;14.30;11.90;;;;;;;4.46;68.99;99273.98;234505;213;140947;-59
2023/11/22 01:12:09;;;;;;;15.40;11.90;;;;;;;4.46;69.01;99276.98;234474;215;141585;-59
2023/11/22 01:17:12;;;;;;;17.40;12.70;;;;;;;4.42;69.07;99274.84;234333;215;148082;-59
2023/11/22 01:22:17;;;;;;;14.10;10.90;;;;;;;4.40;69.05;99274.55;234080;213;140424;-59
2023/11/22 01:27:20;;;;;;;13.20;10.90;;;;;;;4.42;69.23;99275.19;234339;215;139116;-59
2023/11/22 01:32:24;;;;;;;14.60;10.90;;;;;;;4.47;68.78;99276.24;234355;215;147538;-59
2023/11/22 01:37:27;;;;;;;15.70;10.80;;;;;;;4.50;68.20;99286.52;234413;215;138645;-58
2023/11/22 01:42:31;;;;;;;15.00;11.60;;;;;;;4.50;67.84;99293.88;233720;213;137936;-58
2023/11/22 01:47:36;;;;;;;15.20;10.80;;;;;;;4.49;67.80;99305.34;234257;213;148254;-58
2023/11/22 01:52:40;;;;;;;14.60;10.80;;;;;;;4.45;67.65;99308.11;234365;215;139482;-60
2023/11/22 01:57:43;;;;;;;13.80;10.40;;;;;;;4.39;67.53;99307.96;234320;215;138792;-59
2023/11/22 02:02:46;;;;;;;13.70;10.70;;;;;;;4.33;67.73;99313.77;234256;215;151889;-59
2023/11/22 02:07:49;;;;;;;16.40;11.60;;;;;;;4.28;67.66;99316.93;234446;215;139870;-58
2023/11/22 02:12:52;;;;;;;16.60;11.10;;;;;;;4.24;67.39;99321.96;234452;213;137161;-58
2023/11/22 02:17:57;;;;;;;13.80;10.80;;;;;;;4.19;67.62;99329.15;234423;215;149315;-58
2023/11/22 02:23:17;;;;;;;14.30;11.00;;;;;;;4.10;67.61;99336.27;234241;213;139442;-60
2023/11/22 02:28:20;;;;;;;16.10;12.20;;;;;;;4.04;67.79;99344.70;234372;215;140421;-59
2023/11/22 02:33:23;;;;;;;16.70;12.50;;;;;;;3.99;68.03;99344.70;234352;215;149053;-59
2023/11/22 02:38:27;;;;;;;15.70;12.30;;;;;;;3.96;68.29;99345.31;234276;215;138722;-59
2023/11/22 02:43:31;;;;;;;17.60;12.60;;;;;;;3.93;68.38;99346.96;234403;215;137449;-58
2023/11/22 02:48:34;;;;;;;17.60;13.00;;;;;;;3.92;68.58;99349.97;234493;213;150211;-59
2023/11/22 02:53:37;;;;;;;17.10;12.50;;;;;;;3.90;68.70;99358.30;234398;215;138874;-59
2023/11/22 02:58:41;;;;;;;20.20;13.70;;;;;;;3.90;68.76;99366.89;234412;215;138459;-59
2023/11/22 03:03:44;;;;;;;19.90;13.40;;;;;;;3.95;68.57;99370.95;233857;212;149240;-59
2023/11/22 03:08:48;;;;;;;19.90;14.10;;;;;;;4.04;68.30;99374.20;234555;212;138892;-59
2023/11/22 03:13:51;;;;;;;19.20;13.90;;;;;;;4.10;68.13;99381.77;233225;212;137184;-61
2023/11/22 03:18:55;;;;;;;18.80;14.10;;;;;;;4.11;67.81;99392.80;234780;214;149194;-58
2023/11/22 03:24:00;;;;;;;18.70;13.20;;;;;;;4.07;67.79;99404.50;234673;214;139534;-57
2023/11/22 03:29:03;;;;;;;18.50;13.60;;;;;;;4.01;67.66;99413.44;234783;207;136990;-58
2023/11/22 03:34:06;;;;;;;19.30;13.90;;;;;;;3.97;67.47;99426.04;234574;214;148334;-59
2023/11/22 03:39:10;;;;;;;17.40;13.70;;;;;;;3.94;67.51;99438.04;234557;214;138399;-58
2023/11/22 03:44:13;;;;;;;19.30;14.30;;;;;;;3.92;67.46;99445.63;234731;214;137338;-60
2023/11/22 03:49:16;;;;;;;22.20;15.60;;;;;;;3.88;67.16;99457.87;234781;211;149838;-59
2023/11/22 03:54:19;;;;;;;20.30;15.00;;;;;;;3.87;67.07;99467.55;234670;214;138839;-60
2023/11/22 03:59:24;;;;;;;19.20;13.60;;;;;;;3.83;66.91;99476.43;234159;214;138049;-59
2023/11/22 04:04:27;;;;;;;18.80;13.50;;;;;;;3.78;67.18;99481.48;234504;214;149114;-58
2023/11/22 04:09:30;;;;;;;17.00;12.40;;;;;;;3.77;66.98;99489.41;234571;212;139519;-60
2023/11/22 04:14:33;;;;;;;17.40;13.00;;;;;;;3.73;67.06;99504.26;234692;212;137242;-60
2023/11/22 04:19:36;;;;;;;14.60;11.70;;;;;;;3.71;66.96;99512.20;234551;214;149217;-59
2023/11/22 04:24:39;;;;;;;16.50;12.10;;;;;;;3.69;67.05;99512.27;234783;214;139451;-59
2023/11/22 04:29:42;;;;;;;17.70;12.20;;;;;;;3.70;67.13;99519.78;234674;214;137773;-58
2023/11/22 04:34:45;;;;;;;17.80;13.10;;;;;;;3.69;67.06;99532.09;234517;213;149907;-58
2023/11/22 04:39:52;;;;;;;16.30;12.90;;;;;;;3.69;67.17;99538.58;234640;214;139461;-60
2023/11/22 04:44:55;;;;;;;20.40;13.30;;;;;;;3.71;67.12;99550.83;233694;214;137729;-60
2023/11/22 04:49:58;;;;;;;19.40;13.20;;;;;;;3.68;66.90;99565.27;234257;213;150761;-59
2023/11/22 04:55:01;;;;;;;20.40;13.50;;;;;;;3.63;66.94;99571.55;234657;207;138670;-57
2023/11/22 05:00:07;;;;;;;20.40;13.60;;;;;;;3.63;66.94;99588.58;234539;215;138983;-56
2023/11/22 05:05:10;;;;;;;19.00;14.30;;;;;;;3.69;66.91;99598.41;234534;214;149362;-59
2023/11/22 05:10:14;;;;;;;17.90;14.10;;;;;;;3.77;66.74;99607.52;234561;214;139866;-58
2023/11/22 05:15:17;;;;;;;21.00;13.00;;;;;;;3.82;66.50;99619.34;234292;208;139946;-58
2023/11/22 05:20:20;;;;;;;16.80;12.60;;;;;;;3.79;66.25;99635.91;234687;214;149393;-58
2023/11/22 05:25:24;;;;;;;17.00;13.20;;;;;;;3.76;66.29;99644.40;234705;212;139470;-58
2023/11/22 05:30:27;;;;;;;19.10;11.50;;;;;;;3.72;66.43;99649.56;234881;212;137734;-57
2023/11/22 05:35:30;;;;;;;21.00;14.10;;;;;;;3.62;66.29;99655.98;234530;212;149614;-58
2023/11/22 05:40:35;;;;;;;23.00;14.80;;;;;;;3.56;66.67;99664.17;234477;212;140933;-58
2023/11/22 05:45:38;;;;;;;21.00;15.30;;;;;;;3.54;66.84;99664.04;234572;214;137160;-58
2023/11/22 05:50:42;;;;;;;19.80;14.70;;;;;;;3.55;67.04;99672.27;234021;212;149215;-58
2023/11/22 05:55:49;;;;;;;22.20;14.60;;;;;;;3.54;66.97;99675.45;234385;214;138641;-58
2023/11/22 06:00:52;;;;;;;18.40;13.40;;;;;;;3.51;66.85;99679.20;234809;212;137025;-59
2023/11/22 06:05:57;;;;;;;22.30;14.30;;;;;;;3.49;66.91;99674.52;233944;214;149378;-58
2023/11/22 06:11:00;;;;;;;20.60;14.10;;;;;;;3.48;67.13;99680.85;234474;214;140104;-59
2023/11/22 06:16:04;;;;;;;19.80;13.40;;;;;;;3.48;67.25;99688.56;234263;213;137132;-61
2023/11/22 06:21:08;;;;;;;19.10;13.00;;;;;;;3.48;67.04;99705.07;234469;214;149232;-59
2023/11/22 06:26:11;;;;;;;17.30;13.10;;;;;;;3.46;67.06;99714.56;234507;214;138737;-61
2023/11/22 06:31:14;;;;;;;18.10;12.80;;;;;;;3.45;67.01;99722.13;234522;214;138179;-61
2023/11/22 06:36:18;;;;;;;21.10;13.10;;;;;;;3.42;66.71;99721.32;234738;214;149424;-60
2023/11/22 06:41:21;;;;;;;19.20;12.80;;;;;;;3.41;66.45;99726.96;234568;214;139614;-61
2023/11/22 06:46:24;;;;;;;18.80;12.50;;;;;;;3.39;66.44;99735.95;234318;214;137187;-60
2023/11/22 06:51:28;;;;;;;16.10;12.30;;;;;;;3.38;66.44;99743.88;234642;214;149452;-61
2023/11/22 06:56:31;;;;;;;16.70;11.30;;;;;;;3.36;66.28;99750.41;234294;214;138772;-61
2023/11/22 07:01:34;;;;;;;17.60;11.40;;;;;;;3.36;65.95;99760.74;234659;214;141814;-63
2023/11/22 07:06:37;;;;;;;17.20;11.70;;;;;;;3.35;65.92;99766.04;234954;214;149112;-59
2023/11/22 07:11:41;;;;;;;101.60;69.80;;;;;;;3.41;66.43;99774.67;234614;214;138867;-60
2023/11/22 07:16:44;;;;;;;18.00;11.40;;;;;;;3.49;66.29;99789.75;234631;214;138172;-60
2023/11/22 07:21:48;;;;;;;129.00;79.10;;;;;;;3.57;65.83;99793.81;234643;214;150620;-60
2023/11/22 07:26:51;;;;;;;48.00;36.60;;;;;;;3.66;65.48;99796.06;234658;214;139838;-60
2023/11/22 07:31:56;;;;;;;15.80;11.00;;;;;;;3.73;65.70;99799.96;234683;212;137441;-59
2023/11/22 07:36:59;;;;;;;14.70;10.30;;;;;;;3.80;64.97;99805.58;234836;214;150934;-57
2023/11/22 07:42:03;;;;;;;16.80;11.00;;;;;;;3.75;64.61;99805.52;234635;212;140407;-59
2023/11/22 07:47:09;;;;;;;15.20;11.30;;;;;;;3.65;64.66;99802.77;234590;211;136808;-58
2023/11/22 07:52:13;;;;;;;210.00;132.90;;;;;;;3.57;65.04;99807.12;234603;207;149513;-59
2023/11/22 07:57:20;;;;;;;31.00;19.40;;;;;;;3.64;65.87;99815.24;234347;215;138900;-56
2023/11/22 08:02:23;;;;;;;15.40;11.20;;;;;;;3.67;64.74;99819.37;234676;212;137778;-56
2023/11/22 08:07:27;;;;;;;27.40;18.00;;;;;;;3.57;64.52;99816.77;234698;214;149609;-56
2023/11/22 08:12:30;;;;;;;14.20;11.10;;;;;;;3.49;64.81;99818.54;234738;214;139561;-56
2023/11/22 08:17:35;;;;;;;17.80;11.20;;;;;;;3.44;64.93;99835.47;234708;207;138433;-58
2023/11/22 08:22:39;;;;;;;19.20;13.30;;;;;;;3.41;64.88;99855.70;234621;212;149204;-59
2023/11/22 08:27:43;;;;;;;14.30;10.20;;;;;;;3.35;64.88;99860.73;234627;214;140420;-59
2023/11/22 08:32:53;;;;;;;14.80;10.60;;;;;;;3.29;64.69;99862.95;234582;212;137674;-59
2023/11/22 08:37:58;;;;;;;198.50;123.60;;;;;;;3.37;67.04;99868.58;234503;214;151942;-59
2023/11/22 08:43:01;;;;;;;19.70;13.80;;;;;;;3.53;65.49;99863.36;234793;214;139600;-59
2023/11/22 08:48:05;;;;;;;18.20;11.30;;;;;;;3.48;64.75;99860.66;234706;214;136784;-59
2023/11/22 08:53:08;;;;;;;17.00;11.30;;;;;;;3.42;64.68;99876.03;234596;214;149232;-58
2023/11/22 08:58:12;;;;;;;14.80;10.50;;;;;;;3.39;64.91;99878.36;234535;212;139266;-58
2023/11/22 09:03:16;;;;;;;14.30;10.10;;;;;;;3.39;64.76;99890.46;234330;212;140582;-58
2023/11/22 09:08:20;;;;;;;16.90;10.60;;;;;;;3.39;64.36;99881.00;234688;214;149681;-58
2023/11/22 09:13:29;;;;;;;52.40;31.40;;;;;;;3.44;64.91;99885.29;233902;212;140108;-56
2023/11/22 09:18:33;;;;;;;19.20;12.40;;;;;;;3.52;64.60;99879.66;234614;213;136910;-57
2023/11/22 09:23:36;;;;;;;14.80;11.10;;;;;;;3.51;64.15;99885.52;234466;212;149659;-59
2023/11/22 09:28:43;;;;;;;15.60;11.50;;;;;;;3.47;64.24;99896.27;234447;212;139535;-59
2023/11/22 09:33:49;;;;;;;19.80;11.40;;;;;;;3.43;64.19;99897.23;234407;213;138511;-59
2023/11/22 09:38:53;;;;;;;16.70;11.30;;;;;;;3.42;64.11;99912.85;234655;212;149506;-57
2023/11/22 09:43:58;;;;;;;17.20;11.20;;;;;;;3.42;64.06;99904.27;234533;207;138896;-60
2023/11/22 09:49:08;;;;;;;15.50;10.40;;;;;;;3.40;64.08;99898.00;234694;212;136887;-60
2023/11/22 09:54:14;;;;;;;17.60;10.50;;;;;;;3.37;63.98;99917.52;234511;212;150019;-60
2023/11/22 09:59:18;;;;;;;21.20;10.10;;;;;;;3.37;64.04;99928.05;234409;211;140773;-60
2023/11/22 10:04:23;;;;;;;15.00;10.20;;;;;;;3.38;63.76;99925.22;234505;211;137353;-60
2023/11/22 10:09:29;;;;;;;13.40;9.60;;;;;;;3.39;63.99;99917.11;234491;207;151082;-59
2023/11/22 10:14:34;;;;;;;13.40;9.70;;;;;;;3.41;64.02;99916.73;234478;212;138893;-59
2023/11/22 10:19:39;;;;;;;13.00;9.80;;;;;;;3.41;63.89;99923.25;234611;212;138064;-60
2023/11/22 10:24:43;;;;;;;14.70;10.30;;;;;;;3.42;64.03;99936.19;234636;211;149488;-61
2023/11/22 10:29:48;;;;;;;471.80;324.70;;;;;;;3.44;64.06;99945.27;234485;212;138970;-61
2023/11/22 10:34:51;;;;;;;39.70;23.50;;;;;;;3.53;64.74;99951.26;233563;212;139059;-58
2023/11/22 10:39:55;;;;;;;21.50;12.90;;;;;;;3.52;63.79;99966.36;234346;206;148762;-59
2023/11/22 10:45:03;;;;;;;18.20;11.50;;;;;;;3.48;63.94;99963.80;234400;208;139622;-58
2023/11/22 10:50:08;;;;;;;16.50;10.20;;;;;;;3.45;63.93;99964.19;233962;212;152925;-59
2023/11/22 10:55:15;;;;;;;16.30;10.50;;;;;;;3.43;64.02;99964.94;234678;212;150041;-61
2023/11/22 11:00:22;;;;;;;15.10;9.80;;;;;;;3.42;63.72;99961.97;234654;214;138739;-60
2023/11/22 11:05:29;;;;;;;13.70;10.00;;;;;;;3.41;63.74;99953.58;234587;211;137084;-60
2023/11/22 11:10:33;;;;;;;18.50;10.60;;;;;;;3.40;63.64;99945.71;234462;212;149207;-59
2023/11/22 11:15:40;;;;;;;18.20;9.90;;;;;;;3.39;63.55;99947.30;234548;212;138697;-58
2023/11/22 11:20:54;;;;;;;15.70;10.40;;;;;;;3.40;63.40;99937.99;234551;212;137982;-59
2023/11/22 11:26:22;;;;;;;17.10;10.40;;;;;;;3.40;63.57;99941.15;234658;211;150341;-54
2023/11/22 11:31:31;;;;;;;14.90;9.90;;;;;;;3.39;63.31;99954.30;234674;211;138740;-57
2023/11/22 11:36:37;;;;;;;15.00;9.50;;;;;;;3.42;63.53;99957.95;234808;214;136685;-57
2023/11/22 11:41:41;;;;;;;13.10;9.40;;;;;;;3.43;63.18;99953.55;234585;214;149124;-56
2023/11/22 11:46:45;;;;;;;13.70;9.80;;;;;;;3.43;63.71;99962.48;234211;214;139138;-53
2023/11/22 11:51:50;;;;;;;15.10;9.80;;;;;;;3.43;63.79;99969.86;234637;212;136970;-55
2023/11/22 11:56:58;;;;;;;15.50;9.60;;;;;;;3.45;64.03;99971.21;234523;214;150819;-55
2023/11/22 12:02:05;;;;;;;14.50;9.90;;;;;;;3.42;64.15;99990.05;234401;214;141467;-53
2023/11/22 12:07:11;;;;;;;14.80;10.20;;;;;;;3.42;64.68;100006.00;234694;214;137111;-55
2023/11/22 12:12:15;;;;;;;15.20;10.30;;;;;;;3.39;64.14;100001.14;234574;214;149512;-54
2023/11/22 12:17:20;;;;;;;16.10;9.90;;;;;;;3.40;63.89;99996.04;234564;214;140940;-55
2023/11/22 12:22:24;;;;;;;13.80;9.60;;;;;;;3.41;63.90;99995.67;234730;214;140397;-55
2023/11/22 12:27:28;;;;;;;13.90;9.40;;;;;;;3.40;64.14;100007.98;234443;215;149246;-56
2023/11/22 12:32:31;;;;;;;13.80;9.80;;;;;;;3.40;64.05;99986.05;234452;214;139066;-55
2023/11/22 12:37:35;;;;;;;14.10;10.00;;;;;;;3.43;63.62;99987.21;234515;214;137916;-55
2023/11/22 12:42:49;;;;;;;17.40;10.40;;;;;;;3.41;63.58;99977.77;234716;213;149367;-59
2023/11/22 12:47:52;;;;;;;15.40;10.10;;;;;;;3.43;63.91;99974.94;234615;214;139260;-55
2023/11/22 12:52:56;;;;;;;15.30;10.70;;;;;;;3.45;63.71;99972.27;234496;208;137950;-55
2023/11/22 12:58:01;;;;;;;16.80;10.40;;;;;;;3.49;63.39;99974.66;234623;213;150896;-55
2023/11/22 13:03:06;;;;;;;14.50;10.20;;;;;;;3.48;63.60;99979.77;234606;212;143378;-55
2023/11/22 13:08:13;;;;;;;15.00;10.60;;;;;;;3.47;63.71;99983.65;234545;214;137005;-54
2023/11/22 13:13:17;;;;;;;16.80;10.70;;;;;;;3.47;63.46;99996.96;234514;212;151132;-55
2023/11/22 13:18:21;;;;;;;18.60;10.80;;;;;;;3.47;63.39;100004.86;234657;211;138885;-55
2023/11/22 13:23:24;;;;;;;17.70;11.80;;;;;;;3.47;63.58;100016.63;234482;214;138113;-55
2023/11/22 13:28:27;;;;;;;17.60;10.50;;;;;;;3.44;63.62;100027.71;234677;207;150099;-54
2023/11/22 13:33:30;;;;;;;15.10;9.90;;;;;;;3.42;63.47;100025.65;234568;212;138927;-55
2023/11/22 13:38:34;;;;;;;15.50;10.30;;;;;;;3.41;63.46;100017.61;234571;212;136816;-55
2023/11/22 13:43:37;;;;;;;20.10;11.20;;;;;;;3.39;63.13;100015.87;234579;214;149298;-55
2023/11/22 13:48:41;;;;;;;18.10;11.00;;;;;;;3.40;63.53;100019.20;234636;214;139637;-51
2023/11/22 13:53:49;;;;;;;17.60;11.40;;;;;;;3.37;63.66;100028.19;234531;213;138319;-55
2023/11/22 13:58:52;;;;;;;19.20;11.20;;;;;;;3.37;63.73;100021.89;234479;212;150245;-53
2023/11/22 14:03:56;;;;;;;15.40;10.90;;;;;;;3.38;63.65;100017.30;234595;212;138645;-57
2023/11/22 14:09:00;;;;;;;17.00;10.90;;;;;;;3.39;63.60;100023.76;234580;213;137278;-57
2023/11/22 14:14:04;;;;;;;19.50;11.50;;;;;;;3.40;63.77;100040.59;234514;213;149490;-57
2023/11/22 14:19:07;;;;;;;15.40;10.50;;;;;;;3.40;63.75;100057.61;234586;213;138730;-58
2023/11/22 14:24:10;;;;;;;14.70;10.20;;;;;;;3.35;63.33;100069.79;234482;214;137337;-58
2023/11/22 14:29:13;;;;;;;15.30;9.80;;;;;;;3.33;63.75;100080.35;234619;212;149335;-57
2023/11/22 14:34:16;;;;;;;15.70;10.70;;;;;;;3.32;63.72;100092.80;234399;213;140423;-55
2023/11/22 14:39:20;;;;;;;16.20;10.70;;;;;;;3.34;63.43;100084.20;234500;214;138069;-57
2023/11/22 14:44:24;;;;;;;15.60;10.90;;;;;;;3.34;63.45;100078.58;234304;214;150306;-56
2023/11/22 14:49:27;;;;;;;14.30;9.20;;;;;;;3.31;62.97;100059.33;234570;211;139046;-55
2023/11/22 14:54:37;;;;;;;11.90;8.20;;;;;;;3.30;62.52;100070.40;234593;213;137945;-59
2023/11/22 14:59:41;;;;;;;12.20;8.50;;;;;;;3.29;62.70;100085.48;234431;211;149660;-58
2023/11/22 15:04:45;;;;;;;10.10;7.00;;;;;;;3.26;62.42;100073.62;234443;212;141037;-58
2023/11/22 15:09:48;;;;;;;10.50;6.80;;;;;;;3.23;61.95;100083.49;234495;214;138188;-59
2023/11/22 15:14:52;;;;;;;11.90;8.40;;;;;;;3.21;61.64;100085.79;234714;214;149386;-59
2023/11/22 15:19:55;;;;;;;13.20;7.80;;;;;;;3.20;61.79;100085.45;234672;214;138921;-57
2023/11/22 15:24:59;;;;;;;12.20;8.00;;;;;;;3.20;61.94;100086.86;234858;214;138689;-59
2023/11/22 15:30:03;;;;;;;11.50;7.40;;;;;;;3.18;62.03;100089.69;234507;212;149219;-55
2023/11/22 15:35:08;;;;;;;8.20;6.00;;;;;;;3.18;61.74;100077.06;234416;213;139829;-61
2023/11/22 15:40:12;;;;;;;10.00;6.70;;;;;;;3.16;60.84;100074.11;234533;212;137975;-60
2023/11/22 15:45:16;;;;;;;8.50;6.30;;;;;;;3.15;61.05;100060.27;234444;212;149510;-62
2023/11/22 15:50:19;;;;;;;13.20;7.20;;;;;;;3.16;60.87;100065.35;234539;211;140304;-60
2023/11/22 15:55:22;;;;;;;12.60;8.90;;;;;;;3.14;61.01;100069.60;234436;208;138574;-61
2023/11/22 16:00:25;;;;;;;12.70;7.70;;;;;;;3.15;61.70;100078.70;234689;212;149243;-61
2023/11/22 16:05:29;;;;;;;15.40;8.40;;;;;;;3.16;61.23;100089.19;234336;212;139357;-61
2023/11/22 16:10:32;;;;;;;12.70;8.50;;;;;;;3.14;61.48;100081.35;234537;212;140994;-60
2023/11/22 16:15:36;;;;;;;13.20;8.80;;;;;;;3.13;61.39;100085.91;234546;212;149155;-59
2023/11/22 16:20:39;;;;;;;13.50;9.00;;;;;;;3.13;61.30;100088.73;234251;213;139341;-59
2023/11/22 16:25:43;;;;;;;14.00;8.50;;;;;;;3.13;61.04;100085.39;234585;210;138533;-59
2023/11/22 16:30:46;;;;;;;11.50;8.00;;;;;;;3.04;60.84;100080.09;234484;211;150212;-61
2023/11/22 16:35:50;;;;;;;14.50;8.50;;;;;;;2.97;60.79;100081.76;234463;212;138982;-60
2023/11/22 16:40:54;;;;;;;13.30;8.70;;;;;;;2.94;60.86;100071.81;234443;212;137736;-60
2023/11/22 16:45:57;;;;;;;13.90;8.50;;;;;;;2.93;60.88;100080.42;234541;211;149172;-60
2023/11/22 16:51:01;;;;;;;14.70;8.90;;;;;;;2.92;61.00;100088.33;234534;212;140279;-60
2023/11/22 16:56:04;;;;;;;13.10;8.60;;;;;;;2.95;61.40;100087.23;234613;207;137464;-60
2023/11/22 17:01:08;;;;;;;13.70;8.60;;;;;;;2.95;61.18;100082.14;234645;212;149184;-60
2023/11/22 17:06:11;;;;;;;218.20;117.10;;;;;;;2.95;61.01;100074.61;234486;212;138986;-62
2023/11/22 17:11:14;;;;;;;31.00;18.60;;;;;;;3.12;61.56;100084.86;233057;207;137794;-55
2023/11/22 17:16:18;;;;;;;16.70;9.40;;;;;;;3.17;60.81;100093.23;234465;212;148879;-60
2023/11/22 17:21:22;;;;;;;14.50;9.10;;;;;;;3.16;60.47;100088.15;234464;212;138999;-61
2023/11/22 17:26:25;;;;;;;15.10;9.20;;;;;;;3.13;60.43;100099.06;234428;212;139550;-60
2023/11/22 17:31:28;;;;;;;12.20;8.90;;;;;;;3.11;60.58;100098.92;234526;212;149284;-58
2023/11/22 17:36:32;;;;;;;12.80;8.60;;;;;;;3.07;60.57;100090.73;234590;212;138865;-61
2023/11/22 17:41:35;;;;;;;15.20;8.60;;;;;;;3.01;60.93;100105.54;234326;212;136886;-55
2023/11/22 17:46:41;;;;;;;12.80;8.20;;;;;;;3.00;60.86;100118.00;234452;207;149152;-55
2023/11/22 17:51:48;;;;;;;13.10;8.00;;;;;;;3.01;60.36;100115.89;234379;212;138750;-54
2023/11/22 17:56:51;;;;;;;12.50;8.10;;;;;;;2.95;59.83;100110.52;234437;212;138922;-54
2023/11/22 18:01:54;;;;;;;12.20;8.00;;;;;;;2.82;59.49;100111.94;234398;212;149306;-55
2023/11/22 18:06:58;;;;;;;12.70;8.20;;;;;;;2.77;59.79;100107.09;234588;212;140120;-56
2023/11/22 18:12:17;;;;;;;15.60;9.10;;;;;;;2.75;59.61;100110.46;234487;212;136922;-55
2023/11/22 18:17:21;;;;;;;13.60;9.00;;;;;;;2.66;59.77;100111.80;234084;211;149269;-54
2023/11/22 18:22:24;;;;;;;13.50;9.00;;;;;;;2.74;60.95;100098.38;234387;212;139980;-55
2023/11/22 18:27:27;;;;;;;15.20;9.90;;;;;;;2.80;60.78;100097.41;234461;212;136775;-56
2023/11/22 18:32:30;;;;;;;13.30;9.30;;;;;;;2.82;61.08;100106.34;234518;208;149374;-56
2023/11/22 18:37:34;;;;;;;14.30;9.70;;;;;;;2.87;60.84;100113.80;234477;212;139487;-53
2023/11/22 18:42:37;;;;;;;12.20;8.60;;;;;;;2.89;60.99;100114.30;234581;207;136953;-53
2023/11/22 18:47:41;;;;;;;13.50;8.10;;;;;;;2.88;60.67;100116.25;234471;212;149326;-56
2023/11/22 18:52:44;;;;;;;11.00;8.30;;;;;;;2.86;60.63;100126.27;234407;214;139315;-55
2023/11/22 18:57:47;;;;;;;12.70;8.40;;;;;;;2.84;60.69;100129.61;234401;214;137067;-54
2023/11/22 19:02:51;;;;;;;14.10;8.60;;;;;;;2.81;60.70;100118.42;234538;212;149449;-56
2023/11/22 19:07:57;;;;;;;13.40;8.40;;;;;;;2.81;60.73;100098.80;234318;213;138802;-55
2023/11/22 19:13:01;;;;;;;13.10;8.20;;;;;;;2.84;60.29;100078.27;234612;211;139347;-56
2023/11/22 19:18:04;;;;;;;13.90;8.60;;;;;;;2.83;60.35;100059.70;234542;214;149395;-55
2023/11/22 19:23:08;;;;;;;12.70;8.40;;;;;;;2.81;60.30;100051.49;234525;212;140303;-54
2023/11/22 19:28:11;;;;;;;46.00;29.90;;;;;;;2.82;61.19;100063.92;234480;213;138400;-52
2023/11/22 19:33:17;;;;;;;19.40;13.20;;;;;;;3.01;62.13;100060.31;234508;213;149271;-56
2023/11/22 19:38:20;;;;;;;12.20;8.10;;;;;;;3.08;60.96;100058.63;234458;211;140055;-55
2023/11/22 19:43:24;;;;;;;13.70;8.50;;;;;;;3.01;60.66;100059.61;234417;211;137370;-55
2023/11/22 19:48:27;;;;;;;11.90;7.80;;;;;;;2.96;60.77;100057.95;234625;209;149755;-55
2023/11/22 19:53:30;;;;;;;12.30;8.30;;;;;;;2.88;60.80;100068.23;234473;211;139883;-55
2023/11/22 19:58:34;;;;;;;15.50;8.70;;;;;;;2.84;60.91;100071.60;234384;212;137080;-54
2023/11/22 20:03:37;;;;;;;12.80;8.70;;;;;;;2.81;61.03;100067.44;234514;212;149390;-58
2023/11/22 20:08:41;;;;;;;14.80;8.80;;;;;;;2.80;60.89;100052.20;234491;212;140158;-57
2023/11/22 20:13:44;;;;;;;16.10;9.00;;;;;;;2.80;61.05;100058.86;234288;212;137476;-58
2023/11/22 20:18:48;;;;;;;14.30;8.90;;;;;;;2.82;61.09;100048.86;234601;211;151992;-58
2023/11/22 20:23:51;;;;;;;17.20;9.80;;;;;;;2.82;61.02;100054.99;234490;211;138559;-40
2023/11/22 20:28:56;;;;;;;51.50;36.60;;;;;;;3.05;63.56;100062.89;234555;212;136897;-59
2023/11/22 20:33:59;;;;;;;17.50;11.10;;;;;;;3.31;61.89;100040.92;234505;211;149645;-53
2023/11/22 20:39:04;;;;;;;14.20;10.00;;;;;;;3.20;60.56;100030.23;234123;213;140018;-53
2023/11/22 20:44:12;;;;;;;14.40;8.70;;;;;;;3.06;60.49;100034.64;234118;212;137643;-53
2023/11/22 20:49:17;;;;;;;12.80;8.80;;;;;;;2.97;60.49;100032.68;234128;213;149865;-52
2023/11/22 20:54:21;;;;;;;13.50;9.20;;;;;;;2.93;60.39;100033.09;234204;215;139995;-52
2023/11/22 20:59:24;;;;;;;31.00;20.90;;;;;;;2.96;62.52;100011.85;234173;209;137062;-52
2023/11/22 21:04:27;;;;;;;14.80;10.00;;;;;;;3.11;60.66;100005.30;234085;212;149387;-53
2023/11/22 21:09:31;;;;;;;15.40;9.70;;;;;;;3.02;60.19;99990.34;234169;212;139209;-55
2023/11/22 21:14:35;;;;;;;14.00;9.70;;;;;;;2.94;60.17;99981.73;234232;213;270117;-54
2023/11/22 21:19:39;;;;;;;14.10;9.20;;;;;;;2.86;60.30;99971.52;234055;211;149553;-54
2023/11/22 21:24:42;;;;;;;15.00;9.10;;;;;;;2.81;60.39;99953.37;234302;209;138861;-54
2023/11/22 21:29:45;;;;;;;14.50;9.70;;;;;;;2.78;60.47;99949.04;234123;213;137514;-54
2023/11/22 21:34:48;;;;;;;14.20;9.50;;;;;;;2.76;60.51;99937.14;234206;213;149517;-55
2023/11/22 21:39:51;;;;;;;14.40;10.20;;;;;;;2.76;60.28;99934.16;234219;213;139013;-55
2023/11/22 21:44:54;;;;;;;16.40;10.40;;;;;;;2.74;60.29;99928.77;234154;208;138009;-54
2023/11/22 21:49:58;;;;;;;14.50;10.00;;;;;;;2.73;60.15;99939.65;234276;215;150808;-55
2023/11/22 21:55:01;;;;;;;19.50;11.40;;;;;;;2.70;60.49;99921.13;234261;208;139627;-54
2023/11/22 22:00:05;;;;;;;18.60;10.80;;;;;;;2.66;60.47;99912.42;234147;209;137002;-55
2023/11/22 22:05:08;;;;;;;15.80;10.60;;;;;;;2.64;60.09;99899.15;234235;211;151053;-53
2023/11/22 22:10:11;;;;;;;14.70;10.30;;;;;;;2.61;59.84;99907.95;234247;208;138664;-53
2023/11/22 22:15:14;;;;;;;16.70;11.00;;;;;;;2.58;59.98;99924.64;234171;209;137701;-52
2023/11/22 22:20:18;;;;;;;16.90;11.80;;;;;;;2.63;60.15;99902.50;234262;213;149617;-53
2023/11/22 22:25:22;;;;;;;17.80;12.30;;;;;;;2.63;59.77;99901.43;234167;215;138812;-54
2023/11/22 22:30:25;;;;;;;22.30;14.30;;;;;;;2.62;59.80;99891.48;234325;215;137395;-52
2023/11/22 22:35:29;;;;;;;18.90;13.90;;;;;;;2.61;59.92;99897.09;234184;213;150389;-53
2023/11/22 22:40:34;;;;;;;19.10;14.10;;;;;;;2.61;60.10;99896.39;234300;213;140051;-53
2023/11/22 22:45:37;;;;;;;19.60;14.40;;;;;;;2.54;60.22;99885.30;234122;214;136917;-55
2023/11/22 22:50:41;;;;;;;23.00;15.30;;;;;;;2.43;60.71;99860.60;234281;211;149394;-55
2023/11/22 22:55:44;;;;;;;23.10;15.00;;;;;;;2.43;61.00;99849.55;234150;208;138633;-55
2023/11/22 23:00:47;;;;;;;20.50;13.90;;;;;;;2.49;61.06;99854.02;234529;212;138404;-55
2023/11/22 23:05:50;;;;;;;22.20;14.90;;;;;;;2.50;61.26;99857.67;234195;213;149554;-54
2023/11/22 23:10:54;;;;;;;23.70;14.40;;;;;;;2.50;61.74;99845.08;234158;213;146111;-54
2023/11/22 23:15:57;;;;;;;20.30;13.40;;;;;;;2.49;61.71;99836.50;234005;208;137857;-53